Time;durP1;ratioP1;P1;durP2;ratioP2;P2;SDS_P1;SDS_P2;PMS_P1;PMS_P2;Temp;Humidity;BMP_temperature;BMP_pressure;BME280_temperature;BME280_humidity;BME280_pressure;Samples;Min_cycle;Max_cycle;Signal;HPM_P1;HPM_P2
2022/03/11 00:00:07;;;;;;;7.47;2.37;;;7.50;99.90;;;;;;5069070;28;20190;-65
2022/03/11 00:02:36;;;;;;;9.07;2.30;;;7.40;99.90;;;;;;5074899;28;20191;-65
2022/03/11 00:05:05;;;;;;;9.47;3.03;;;7.50;99.90;;;;;;5067771;28;20724;-66
2022/03/11 00:07:31;;;;;;;8.13;2.40;;;7.50;99.90;;;;;;5060090;28;20269;-64
2022/03/11 00:09:57;;;;;;;8.00;2.23;;;7.40;99.90;;;;;;5051134;28;20189;-65
2022/03/11 00:12:24;;;;;;;10.97;2.40;;;7.40;99.90;;;;;;5067835;28;20190;-67
2022/03/11 00:14:51;;;;;;;7.70;2.20;;;7.40;99.90;;;;;;5067536;28;20742;-66
2022/03/11 00:17:17;;;;;;;10.03;2.30;;;7.40;99.90;;;;;;5067590;28;20183;-66
2022/03/11 00:19:44;;;;;;;5.63;1.80;;;7.40;99.90;;;;;;5068023;28;20213;-65
2022/03/11 00:22:10;;;;;;;9.37;1.80;;;7.10;99.90;;;;;;5066679;28;20269;-64
2022/03/11 00:24:38;;;;;;;7.50;1.83;;;6.80;99.90;;;;;;5065055;28;20313;-66
2022/03/11 00:27:04;;;;;;;7.67;1.80;;;6.50;99.90;;;;;;5067247;28;20655;-64
2022/03/11 00:29:30;;;;;;;4.03;1.33;;;6.40;99.90;;;;;;5067315;28;20197;-66
2022/03/11 00:31:57;;;;;;;7.07;1.93;;;6.20;99.90;;;;;;5055262;28;20190;-64
2022/03/11 00:34:23;;;;;;;4.90;1.40;;;6.10;99.90;;;;;;5068829;28;20296;-64
2022/03/11 00:36:49;;;;;;;6.73;1.80;;;6.10;99.90;;;;;;5067789;28;20199;-66
2022/03/11 00:39:15;;;;;;;12.40;1.90;;;6.10;99.90;;;;;;5066928;28;20191;-66
2022/03/11 00:41:42;;;;;;;12.53;1.80;;;6.00;99.90;;;;;;5071128;28;20197;-66
2022/03/11 00:44:08;;;;;;;3.07;1.17;;;6.10;99.90;;;;;;5067722;28;20205;-65
2022/03/11 00:46:34;;;;;;;4.40;1.30;;;6.00;99.90;;;;;;5066238;28;20278;-64
2022/03/11 00:49:00;;;;;;;6.03;1.80;;;6.10;99.90;;;;;;5063315;28;20221;-66
2022/03/11 00:51:27;;;;;;;4.50;1.10;;;6.10;99.90;;;;;;5068378;28;20194;-65
2022/03/11 00:53:53;;;;;;;4.87;1.13;;;6.10;99.90;;;;;;5067158;28;20214;-65
2022/03/11 00:56:19;;;;;;;5.80;1.80;;;6.20;99.90;;;;;;5065405;28;20971;-65
2022/03/11 00:58:46;;;;;;;7.43;1.60;;;6.30;99.90;;;;;;5070323;28;20230;-65
2022/03/11 01:01:13;;;;;;;8.97;1.60;;;6.40;99.90;;;;;;5067037;28;20256;-64
2022/03/11 01:03:39;;;;;;;11.03;2.47;;;6.50;99.90;;;;;;5065143;28;20662;-65
2022/03/11 01:24:30;;;;;;;10.20;1.67;;;6.70;99.90;;;;;;5063582;28;20191;-65
2022/03/11 01:26:56;;;;;;;16.07;2.13;;;6.80;99.90;;;;;;5066779;28;20686;-67
2022/03/11 01:29:23;;;;;;;10.07;2.10;;;6.70;99.90;;;;;;5066478;28;20278;-66
2022/03/11 01:46:36;;;;;;;14.50;2.37;;;4.70;99.90;;;;;;5063279;28;20548;-66
2022/03/11 01:49:05;;;;;;;15.80;2.30;;;4.60;99.90;;;;;;5067138;28;20248;-66
2022/03/11 01:51:37;;;;;;;7.30;2.50;;;4.50;99.90;;;;;;5065956;28;20911;-64
2022/03/11 01:54:04;;;;;;;5.97;2.00;;;4.40;99.90;;;;;;5066481;28;20848;-64
2022/03/11 01:56:33;;;;;;;12.07;2.40;;;4.30;99.90;;;;;;5066993;28;20277;-65
2022/03/11 01:58:59;;;;;;;10.70;2.10;;;4.30;99.90;;;;;;5063889;28;20751;-66
2022/03/11 02:01:26;;;;;;;5.87;1.93;;;4.40;99.90;;;;;;5065584;28;20554;-65
2022/03/11 02:03:52;;;;;;;9.67;1.97;;;4.40;99.90;;;;;;5068008;28;20214;-66
2022/03/11 02:06:20;;;;;;;15.80;2.50;;;4.50;99.90;;;;;;5070251;28;20183;-64
2022/03/11 02:08:47;;;;;;;14.03;2.37;;;4.70;99.90;;;;;;5071042;28;20195;-66
2022/03/11 02:11:13;;;;;;;17.90;2.50;;;4.60;99.90;;;;;;5070866;28;20289;-65
2022/03/11 02:13:53;;;;;;;9.90;1.70;;;4.70;99.90;;;;;;5068478;28;20219;-66
2022/03/11 02:16:27;;;;;;;7.67;1.90;;;4.80;99.90;;;;;;5069281;28;20179;-64
2022/03/11 02:18:54;;;;;;;18.13;1.87;;;4.90;99.90;;;;;;5068228;28;20202;-64
2022/03/11 02:21:24;;;;;;;12.37;2.47;;;5.00;99.90;;;;;;5070506;28;20187;-65
2022/03/11 02:23:59;;;;;;;7.47;1.97;;;5.00;99.90;;;;;;5071540;28;20244;-66
2022/03/11 02:26:29;;;;;;;11.43;2.33;;;5.00;99.90;;;;;;5067572;28;20218;-65
2022/03/11 02:28:58;;;;;;;14.90;2.50;;;5.10;99.90;;;;;;5071158;28;20206;-64
2022/03/11 02:31:28;;;;;;;10.90;2.50;;;5.10;99.90;;;;;;5069073;28;20784;-66
2022/03/11 02:33:55;;;;;;;9.73;2.40;;;5.20;99.90;;;;;;5052400;28;20211;-66
2022/03/11 02:36:21;;;;;;;9.83;2.63;;;5.30;99.90;;;;;;5068277;28;20320;-68
2022/03/11 02:38:48;;;;;;;11.03;2.97;;;5.20;99.90;;;;;;5052741;28;20277;-66
2022/03/11 02:41:15;;;;;;;9.00;2.10;;;5.20;99.90;;;;;;5069003;28;20195;-65
2022/03/11 02:43:43;;;;;;;12.07;2.67;;;5.10;99.90;;;;;;5070726;28;20562;-67
2022/03/11 02:46:11;;;;;;;11.27;2.30;;;5.10;99.90;;;;;;5069680;28;20663;-66
2022/03/11 02:48:38;;;;;;;10.77;2.67;;;5.10;99.90;;;;;;5069295;28;20221;-66
2022/03/11 02:51:05;;;;;;;5.97;2.57;;;5.10;99.90;;;;;;5067357;28;20182;-65
2022/03/11 02:53:31;;;;;;;13.50;2.20;;;5.20;99.90;;;;;;5070537;28;20214;-65
2022/03/11 02:55:58;;;;;;;14.53;3.00;;;5.20;99.90;;;;;;5068576;28;20198;-64
2022/03/11 02:58:25;;;;;;;12.87;3.00;;;5.20;99.90;;;;;;5070500;28;20187;-65
2022/03/11 03:00:51;;;;;;;11.00;2.53;;;5.20;99.90;;;;;;5071632;28;20272;-68
2022/03/11 03:03:17;;;;;;;7.57;2.80;;;5.30;99.90;;;;;;5065606;28;20187;-65
2022/03/11 03:05:43;;;;;;;8.40;3.00;;;5.10;99.90;;;;;;5050766;28;20187;-65
2022/03/11 03:08:10;;;;;;;9.57;3.20;;;5.00;99.90;;;;;;5069958;28;20191;-68
2022/03/11 03:10:36;;;;;;;5.83;2.97;;;4.90;99.90;;;;;;5069955;28;20191;-67
2022/03/11 03:13:03;;;;;;;8.40;3.30;;;4.80;99.90;;;;;;5067492;28;20264;-66
2022/03/11 03:15:32;;;;;;;7.17;2.90;;;4.70;99.90;;;;;;5069237;28;20205;-65
2022/03/11 03:17:58;;;;;;;4.97;2.30;;;4.70;99.90;;;;;;5069485;28;20197;-65
2022/03/11 03:20:24;;;;;;;7.83;2.90;;;4.60;99.90;;;;;;5069639;28;20182;-66
2022/03/11 03:22:51;;;;;;;4.73;2.47;;;4.50;99.90;;;;;;5069116;28;20300;-67
2022/03/11 03:25:17;;;;;;;6.77;3.33;;;4.50;99.90;;;;;;5084649;28;20209;-64
2022/03/11 03:27:43;;;;;;;8.03;2.47;;;4.50;99.90;;;;;;5068603;28;20187;-65
2022/03/11 03:30:10;;;;;;;8.07;2.53;;;4.30;99.90;;;;;;5067858;28;20187;-66
2022/03/11 03:32:43;;;;;;;6.33;2.63;;;4.40;99.90;;;;;;5051181;28;20202;-65
2022/03/11 03:35:12;;;;;;;14.00;2.90;;;4.40;99.90;;;;;;5069045;28;20610;-66
2022/03/11 03:37:39;;;;;;;6.63;3.00;;;4.40;99.90;;;;;;5069234;28;20647;-65
2022/03/11 03:40:08;;;;;;;8.67;2.73;;;4.50;99.90;;;;;;5063934;28;20198;-65
2022/03/11 03:42:34;;;;;;;13.60;3.53;;;4.50;99.90;;;;;;5067678;28;20183;-66
2022/03/11 03:45:01;;;;;;;12.23;3.40;;;4.50;99.90;;;;;;5071076;28;20187;-65
2022/03/11 03:47:27;;;;;;;17.30;3.70;;;4.60;99.90;;;;;;5069406;28;20195;-64
2022/03/11 03:49:54;;;;;;;9.93;3.17;;;4.60;99.90;;;;;;5069010;28;20190;-67
2022/03/11 03:52:20;;;;;;;9.07;3.30;;;4.70;99.90;;;;;;5067960;28;20673;-67
2022/03/11 03:54:46;;;;;;;6.57;2.73;;;4.70;99.90;;;;;;5069016;28;20214;-66
2022/03/11 03:57:12;;;;;;;7.60;2.77;;;4.70;99.90;;;;;;5068845;28;20186;-64
2022/03/11 03:59:39;;;;;;;6.73;2.77;;;4.70;99.90;;;;;;5068149;28;20186;-64
2022/03/11 04:02:05;;;;;;;9.30;3.07;;;4.70;99.90;;;;;;5076582;28;20222;-65
2022/03/11 04:04:32;;;;;;;9.80;2.73;;;4.70;99.90;;;;;;5067122;28;20191;-64
2022/03/11 04:06:58;;;;;;;9.83;2.43;;;4.80;99.90;;;;;;5068037;28;20214;-66
2022/03/11 04:09:24;;;;;;;3.80;2.33;;;4.80;99.90;;;;;;5049624;28;20829;-65
2022/03/11 04:11:51;;;;;;;6.10;2.17;;;4.80;99.90;;;;;;5065829;28;20198;-65
2022/03/11 04:14:17;;;;;;;5.63;2.40;;;4.80;99.90;;;;;;5067157;28;20229;-65
2022/03/11 04:16:43;;;;;;;9.60;2.27;;;4.80;99.90;;;;;;5069854;28;20840;-65
2022/03/11 04:19:09;;;;;;;9.53;2.33;;;4.80;99.90;;;;;;5066789;28;20579;-65
2022/03/11 04:21:36;;;;;;;6.40;2.23;;;4.90;99.90;;;;;;5068794;28;20643;-65
2022/03/11 04:24:04;;;;;;;5.37;2.57;;;4.90;99.90;;;;;;5050723;28;20197;-65
2022/03/11 04:26:30;;;;;;;4.27;2.43;;;4.90;99.90;;;;;;5065440;28;20207;-64
2022/03/11 04:28:56;;;;;;;11.13;2.50;;;4.90;99.90;;;;;;5067064;28;20190;-64
2022/03/11 04:31:23;;;;;;;6.63;2.40;;;4.90;99.90;;;;;;5066403;28;20186;-64
2022/03/11 04:33:49;;;;;;;6.23;2.60;;;5.00;99.90;;;;;;5067038;28;20551;-66
2022/03/11 04:36:15;;;;;;;13.70;2.70;;;5.00;99.90;;;;;;5066448;28;20671;-65
2022/03/11 04:38:42;;;;;;;10.23;2.57;;;5.10;99.90;;;;;;5070760;28;20194;-65
2022/03/11 04:41:08;;;;;;;8.13;2.60;;;5.10;99.90;;;;;;5067083;28;20602;-65
2022/03/11 04:43:36;;;;;;;6.47;2.27;;;5.20;99.90;;;;;;5066431;28;20381;-64
2022/03/11 04:46:03;;;;;;;7.07;2.47;;;5.20;99.90;;;;;;5049109;28;20198;-65
2022/03/11 04:48:30;;;;;;;9.23;2.10;;;5.30;99.90;;;;;;5067440;28;20186;-65
2022/03/11 04:50:56;;;;;;;5.63;2.13;;;5.30;99.90;;;;;;5067235;28;20209;-65
2022/03/11 04:53:23;;;;;;;13.63;2.60;;;5.30;99.90;;;;;;5066618;28;21057;-65
2022/03/11 04:55:49;;;;;;;6.13;2.10;;;5.40;99.90;;;;;;5066610;28;20256;-65
2022/03/11 04:58:15;;;;;;;9.43;2.03;;;5.40;99.90;;;;;;5065921;28;20201;-66
2022/03/11 05:00:42;;;;;;;8.40;2.10;;;5.50;99.90;;;;;;5067435;28;20258;-65
2022/03/11 05:03:08;;;;;;;7.83;2.20;;;5.50;99.90;;;;;;5068625;28;20251;-67
2022/03/11 05:05:34;;;;;;;5.97;2.00;;;5.50;99.90;;;;;;5065943;28;20298;-67
2022/03/11 05:08:01;;;;;;;11.27;2.33;;;5.60;99.90;;;;;;5066542;28;20187;-65
2022/03/11 05:10:28;;;;;;;11.63;2.93;;;5.60;99.90;;;;;;5067797;28;20240;-65
2022/03/11 05:12:54;;;;;;;9.00;2.20;;;5.70;99.90;;;;;;5065183;28;20193;-65
2022/03/11 05:15:21;;;;;;;9.00;1.97;;;5.80;99.90;;;;;;5067486;28;20198;-65
2022/03/11 05:17:47;;;;;;;6.77;2.00;;;5.80;99.90;;;;;;5069757;28;20273;-64
2022/03/11 05:20:14;;;;;;;6.07;1.67;;;5.80;99.90;;;;;;5066581;28;20679;-65
2022/03/11 05:22:42;;;;;;;6.87;1.77;;;5.80;99.90;;;;;;5067671;28;20243;-65
2022/03/11 05:25:10;;;;;;;6.70;1.90;;;5.80;99.90;;;;;;5069975;28;20216;-65
2022/03/11 05:27:37;;;;;;;8.83;1.80;;;5.80;99.90;;;;;;5064683;28;20551;-66
2022/03/11 05:30:08;;;;;;;6.33;1.53;;;5.80;99.90;;;;;;5064759;28;20191;-65
2022/03/11 05:32:45;;;;;;;5.10;1.50;;;5.80;99.90;;;;;;5065542;28;20186;-65
2022/03/11 05:35:12;;;;;;;6.37;1.50;;;5.80;99.90;;;;;;5082506;28;20221;-65
2022/03/11 05:37:39;;;;;;;3.73;1.30;;;5.80;99.90;;;;;;5049054;28;20252;-66
2022/03/11 05:40:09;;;;;;;4.13;1.63;;;5.80;99.90;;;;;;5069118;28;20218;-64
2022/03/11 05:42:36;;;;;;;3.03;1.50;;;5.80;99.90;;;;;;5070437;28;20190;-66
2022/03/11 05:45:02;;;;;;;3.57;1.57;;;5.80;99.90;;;;;;5071064;28;20191;-65
2022/03/11 05:47:30;;;;;;;8.37;1.80;;;5.90;99.90;;;;;;5072094;28;20716;-67
2022/03/11 05:49:56;;;;;;;5.20;1.67;;;6.00;99.90;;;;;;5071297;28;20206;-64
2022/03/11 05:52:23;;;;;;;5.53;1.37;;;6.00;99.90;;;;;;5066908;28;20740;-68
2022/03/11 05:54:50;;;;;;;3.50;1.37;;;6.00;99.90;;;;;;5067703;28;20246;-66
2022/03/11 05:57:16;;;;;;;9.03;1.67;;;6.00;99.90;;;;;;5075742;28;20715;-66
2022/03/11 05:59:43;;;;;;;7.13;1.73;;;6.10;99.90;;;;;;5078013;28;20527;-66
2022/03/11 06:02:09;;;;;;;10.43;1.70;;;6.10;99.90;;;;;;5072289;28;20266;-65
2022/03/11 06:04:36;;;;;;;7.70;1.60;;;6.10;99.90;;;;;;5079447;28;20194;-68
2022/03/11 06:07:04;;;;;;;6.70;1.93;;;6.30;99.90;;;;;;5086133;28;20205;-65
2022/03/11 06:09:30;;;;;;;3.50;1.43;;;6.30;99.90;;;;;;5068789;28;20232;-66
2022/03/11 06:11:57;;;;;;;8.97;1.80;;;6.30;99.90;;;;;;5052513;28;20651;-66
2022/03/11 06:14:23;;;;;;;5.30;1.80;;;6.40;99.90;;;;;;5070781;28;20211;-66
2022/03/11 06:16:49;;;;;;;7.17;1.80;;;6.30;99.90;;;;;;5051621;28;20228;-66
2022/03/11 06:19:15;;;;;;;6.60;1.80;;;6.40;99.90;;;;;;5080205;28;20186;-68
2022/03/11 06:21:42;;;;;;;7.90;1.60;;;6.40;99.90;;;;;;5070247;28;20663;-64
2022/03/11 06:24:08;;;;;;;3.73;1.50;;;6.40;99.90;;;;;;5070520;28;20187;-65
2022/03/11 06:26:34;;;;;;;4.90;1.60;;;6.50;99.90;;;;;;5069412;28;20546;-67
2022/03/11 06:29:00;;;;;;;5.03;1.30;;;6.60;99.90;;;;;;5069369;28;20304;-64
2022/03/11 06:31:27;;;;;;;6.37;1.67;;;6.60;99.90;;;;;;5070238;28;20590;-68
2022/03/11 06:33:54;;;;;;;9.60;1.70;;;6.60;99.90;;;;;;5069486;28;20226;-64
2022/03/11 06:36:20;;;;;;;4.93;1.53;;;6.60;99.90;;;;;;5068411;28;20171;-65
2022/03/11 06:38:47;;;;;;;8.40;1.47;;;6.60;99.90;;;;;;5068267;28;20187;-64
2022/03/11 06:41:13;;;;;;;8.30;1.87;;;6.70;99.90;;;;;;5068693;28;20587;-66
2022/03/11 06:43:39;;;;;;;10.33;1.90;;;6.80;99.90;;;;;;5068233;28;20194;-66
2022/03/11 06:46:05;;;;;;;8.53;1.97;;;6.80;99.90;;;;;;5067757;28;20191;-65
2022/03/11 06:48:31;;;;;;;10.73;2.40;;;6.90;99.90;;;;;;5070321;28;20197;-64
2022/03/11 06:50:58;;;;;;;7.37;1.50;;;6.80;99.90;;;;;;5068896;28;20213;-67
2022/03/11 06:53:26;;;;;;;9.03;1.97;;;6.90;99.90;;;;;;5069955;28;20264;-64
2022/03/11 06:55:53;;;;;;;5.37;1.90;;;6.90;99.90;;;;;;5069057;28;20212;-66
2022/03/11 06:58:20;;;;;;;3.37;1.67;;;6.90;99.90;;;;;;5069695;28;20700;-65
2022/03/11 07:00:46;;;;;;;8.13;2.00;;;7.00;99.90;;;;;;5068208;28;20365;-64
2022/03/11 07:03:12;;;;;;;5.63;1.73;;;7.00;99.90;;;;;;5049347;28;20183;-64
2022/03/11 07:05:38;;;;;;;8.73;2.07;;;7.00;99.90;;;;;;5080371;28;20948;-64
2022/03/11 07:08:04;;;;;;;7.63;1.63;;;7.10;99.90;;;;;;5065813;28;20211;-64
2022/03/11 07:10:32;;;;;;;12.53;1.97;;;7.10;99.90;;;;;;5069805;28;20598;-68
2022/03/11 07:12:59;;;;;;;7.10;2.03;;;7.10;99.90;;;;;;5060491;28;20179;-66
2022/03/11 07:15:25;;;;;;;11.60;1.80;;;7.10;99.90;;;;;;5078626;28;20185;-65
2022/03/11 07:17:51;;;;;;;6.57;1.77;;;7.10;99.90;;;;;;5068275;28;20186;-66
2022/03/11 07:20:18;;;;;;;6.37;1.80;;;7.10;99.90;;;;;;5067752;28;20210;-65
2022/03/11 07:22:47;;;;;;;9.77;1.97;;;7.10;99.90;;;;;;5067039;28;20221;-65
2022/03/11 07:25:17;;;;;;;7.30;2.20;;;7.20;99.90;;;;;;5067366;28;20265;-64
2022/03/11 07:27:48;;;;;;;9.07;2.37;;;7.30;99.90;;;;;;5067086;28;20893;-64
2022/03/11 07:30:15;;;;;;;5.50;1.77;;;7.40;99.90;;;;;;5068106;28;20227;-64
2022/03/11 07:32:42;;;;;;;13.60;2.47;;;7.40;99.90;;;;;;5064389;28;20218;-65
2022/03/11 07:35:12;;;;;;;8.53;2.10;;;7.40;99.90;;;;;;5049791;28;22301;-65
2022/03/11 07:37:40;;;;;;;9.07;2.20;;;7.40;99.90;;;;;;5066851;28;20187;-64
2022/03/11 07:40:08;;;;;;;10.50;2.67;;;7.30;99.90;;;;;;5064371;28;20211;-64
2022/03/11 07:42:34;;;;;;;8.20;2.50;;;7.30;99.90;;;;;;5067981;28;20295;-67
2022/03/11 07:45:04;;;;;;;5.23;2.17;;;7.30;99.90;;;;;;5068161;28;20603;-65
2022/03/11 07:47:30;;;;;;;5.00;1.90;;;7.20;99.90;;;;;;5050439;28;20487;-66
2022/03/11 07:49:56;;;;;;;10.47;1.97;;;7.20;99.90;;;;;;5069669;28;20190;-65
2022/03/11 07:52:25;;;;;;;6.80;2.33;;;7.30;99.90;;;;;;5048943;28;20191;-65
2022/03/11 07:54:51;;;;;;;6.67;2.00;;;7.30;99.90;;;;;;5063225;28;20215;-65
2022/03/11 07:57:17;;;;;;;8.63;1.90;;;7.30;99.90;;;;;;5068977;28;20198;-66
2022/03/11 07:59:43;;;;;;;7.87;1.87;;;7.40;99.90;;;;;;5044150;28;20186;-65
2022/03/11 08:02:10;;;;;;;13.00;2.20;;;7.40;99.90;;;;;;5067434;28;20174;-64
2022/03/11 08:04:37;;;;;;;7.73;2.23;;;7.50;99.90;;;;;;5067752;28;20272;-66
2022/03/11 08:07:06;;;;;;;7.93;2.60;;;7.40;99.90;;;;;;5066822;28;20247;-65
2022/03/11 08:09:38;;;;;;;8.37;2.20;;;7.40;99.90;;;;;;5066359;28;20583;-66
2022/03/11 08:12:05;;;;;;;7.77;2.70;;;7.40;99.90;;;;;;5051617;28;20497;-65
2022/03/11 08:14:32;;;;;;;9.30;2.07;;;7.40;99.90;;;;;;5049997;28;20256;-65
2022/03/11 08:16:58;;;;;;;8.40;2.30;;;7.40;99.90;;;;;;5061253;28;20192;-65
2022/03/11 08:19:26;;;;;;;6.33;1.97;;;7.40;99.90;;;;;;5069328;28;20647;-68
2022/03/11 08:21:53;;;;;;;6.13;2.40;;;7.60;99.90;;;;;;5064531;28;20187;-65
2022/03/11 08:24:21;;;;;;;7.67;2.30;;;7.60;99.90;;;;;;5063946;28;20526;-65
2022/03/11 08:26:48;;;;;;;6.03;1.90;;;7.70;99.90;;;;;;5065266;28;20240;-64
2022/03/11 08:29:16;;;;;;;5.43;1.90;;;7.80;99.90;;;;;;5046854;28;20697;-64
2022/03/11 08:31:44;;;;;;;7.97;2.10;;;8.00;99.90;;;;;;5062813;28;20195;-66
2022/03/11 08:34:11;;;;;;;6.37;2.17;;;8.10;99.90;;;;;;5048150;28;20300;-65
2022/03/11 08:36:38;;;;;;;10.07;2.00;;;8.10;99.90;;;;;;5062815;28;20187;-66
2022/03/11 08:39:04;;;;;;;8.90;2.23;;;8.10;99.90;;;;;;5063393;28;20183;-65
2022/03/11 08:41:32;;;;;;;3.93;1.77;;;8.00;99.90;;;;;;5065892;28;20664;-65
2022/03/11 08:44:02;;;;;;;8.27;2.60;;;7.90;99.90;;;;;;5065815;28;20186;-65
2022/03/11 08:46:30;;;;;;;9.57;2.87;;;7.90;99.90;;;;;;5079870;28;20237;-65
2022/03/11 08:48:56;;;;;;;10.60;2.10;;;8.00;99.90;;;;;;5061859;28;20198;-66
2022/03/11 08:51:23;;;;;;;11.47;2.20;;;8.00;99.90;;;;;;5083226;28;20201;-65
2022/03/11 08:53:50;;;;;;;6.77;1.93;;;8.10;99.90;;;;;;5051258;28;20221;-65
2022/03/11 08:56:21;;;;;;;8.20;1.93;;;8.10;99.90;;;;;;5066056;28;20183;-64
2022/03/11 08:58:49;;;;;;;8.27;2.23;;;8.10;99.90;;;;;;5048537;28;20191;-65
2022/03/11 09:01:17;;;;;;;8.17;2.23;;;8.10;99.90;;;;;;5064864;28;20237;-64
2022/03/11 09:03:47;;;;;;;8.87;2.07;;;8.20;99.90;;;;;;5065559;28;20189;-66
2022/03/11 09:06:15;;;;;;;4.83;1.70;;;8.20;99.90;;;;;;5065222;28;20187;-66
2022/03/11 09:08:41;;;;;;;4.63;1.60;;;8.30;99.90;;;;;;5047101;28;20530;-65
2022/03/11 09:11:08;;;;;;;8.00;2.10;;;8.20;99.90;;;;;;5061990;28;20195;-66
2022/03/11 09:13:34;;;;;;;10.20;2.03;;;8.20;99.90;;;;;;5063282;28;20234;-64
2022/03/11 09:16:01;;;;;;;8.30;2.50;;;8.20;99.90;;;;;;5065239;28;20360;-65
2022/03/11 09:18:28;;;;;;;8.43;2.57;;;8.40;99.90;;;;;;5068528;28;20190;-64
2022/03/11 09:20:55;;;;;;;6.87;2.30;;;8.50;99.90;;;;;;5072126;28;20239;-65
2022/03/11 09:23:22;;;;;;;5.73;2.03;;;8.50;99.90;;;;;;5052832;28;20183;-64
2022/03/11 09:25:50;;;;;;;7.60;2.23;;;8.40;99.90;;;;;;5068747;28;20206;-65
2022/03/11 09:28:16;;;;;;;12.67;2.50;;;8.30;99.90;;;;;;5070523;28;20267;-66
2022/03/11 09:30:42;;;;;;;9.80;2.80;;;8.20;99.90;;;;;;5059098;28;20272;-66
2022/03/11 09:33:09;;;;;;;4.93;2.20;;;8.00;99.90;;;;;;5068497;28;20200;-66
2022/03/11 09:35:35;;;;;;;6.33;2.23;;;8.00;99.90;;;;;;5052672;28;20191;-64
2022/03/11 09:38:01;;;;;;;8.07;1.93;;;8.00;99.90;;;;;;5072003;28;20186;-64
2022/03/11 09:40:28;;;;;;;7.67;2.43;;;8.40;99.90;;;;;;5079135;28;20201;-65
2022/03/11 09:42:56;;;;;;;6.70;2.23;;;8.50;99.90;;;;;;5068836;28;20198;-64
2022/03/11 09:45:25;;;;;;;5.57;2.40;;;8.40;99.90;;;;;;5069146;28;20882;-64
2022/03/11 09:47:53;;;;;;;16.00;2.63;;;8.20;99.90;;;;;;5070459;28;20659;-64
2022/03/11 09:50:20;;;;;;;5.77;2.40;;;8.20;99.90;;;;;;5067750;28;20206;-66
2022/03/11 09:52:49;;;;;;;5.87;2.17;;;8.10;99.90;;;;;;5067182;28;20261;-64
2022/03/11 09:55:15;;;;;;;8.33;2.30;;;8.10;99.90;;;;;;5047695;28;20206;-66
2022/03/11 09:57:42;;;;;;;8.20;2.30;;;8.30;99.90;;;;;;5068915;28;20237;-64
2022/03/11 10:00:10;;;;;;;4.97;2.47;;;8.30;99.90;;;;;;5069960;28;20187;-65
2022/03/11 10:02:36;;;;;;;5.60;2.40;;;8.20;99.90;;;;;;5063832;28;20205;-66
2022/03/11 10:05:03;;;;;;;9.57;2.67;;;8.10;99.90;;;;;;5079024;28;20245;-64
2022/03/11 10:07:31;;;;;;;16.83;2.93;;;8.00;99.90;;;;;;5064442;28;20367;-65
2022/03/11 10:10:20;;;;;;;8.13;2.17;;;8.00;99.90;;;;;;5064092;28;20187;-66
2022/03/11 10:12:47;;;;;;;10.90;2.63;;;8.90;99.90;;;;;;5068329;28;20191;-65
2022/03/11 10:15:17;;;;;;;11.90;2.03;;;8.80;99.90;;;;;;5064889;28;20225;-64
2022/03/11 10:17:48;;;;;;;12.00;2.40;;;8.60;99.90;;;;;;5064306;28;20198;-63
2022/03/11 10:20:16;;;;;;;6.33;2.57;;;8.40;99.90;;;;;;5080129;28;20183;-65
2022/03/11 10:22:47;;;;;;;10.50;2.63;;;8.20;99.90;;;;;;5066726;28;20261;-65
2022/03/11 10:25:19;;;;;;;7.63;2.10;;;8.10;99.90;;;;;;5061150;28;20586;-65
2022/03/11 10:28:03;;;;;;;7.63;2.00;;;8.10;99.90;;;;;;5066011;28;20187;-65
2022/03/11 10:30:33;;;;;;;7.53;1.63;;;8.10;99.90;;;;;;5063372;28;20218;-64
2022/03/11 10:33:04;;;;;;;10.83;2.23;;;8.50;99.90;;;;;;5065061;28;20189;-66
2022/03/11 10:35:47;;;;;;;8.03;3.07;;;9.70;99.90;;;;;;5066443;28;20195;-65
2022/03/11 10:38:20;;;;;;;12.97;3.57;;;10.20;99.90;;;;;;5068486;28;20202;-66
2022/03/11 10:40:54;;;;;;;11.20;2.90;;;9.30;99.90;;;;;;5056899;28;20191;-66
2022/03/11 10:43:31;;;;;;;7.37;2.30;;;8.80;99.90;;;;;;5066681;28;20577;-65
2022/03/11 10:46:06;;;;;;;4.93;2.03;;;8.50;99.90;;;;;;5065322;28;20186;-65
2022/03/11 10:48:47;;;;;;;7.73;2.27;;;8.40;99.90;;;;;;5079389;28;20676;-64
2022/03/11 10:51:27;;;;;;;7.40;1.90;;;8.40;99.90;;;;;;5065377;28;20203;-66
2022/03/11 10:53:55;;;;;;;4.87;1.80;;;8.30;99.90;;;;;;5065889;28;20211;-64
2022/03/11 10:56:35;;;;;;;8.20;2.03;;;8.20;99.90;;;;;;5064350;28;20663;-66
2022/03/11 10:59:13;;;;;;;9.43;2.20;;;8.10;99.90;;;;;;5067369;28;20266;-66
2022/03/11 11:01:43;;;;;;;6.67;2.13;;;8.10;99.90;;;;;;5049644;28;20273;-66
2022/03/11 11:04:15;;;;;;;7.43;2.47;;;8.10;99.90;;;;;;5063110;28;20231;-66
2022/03/11 11:06:42;;;;;;;9.90;2.60;;;8.10;99.90;;;;;;5068106;28;20195;-65
2022/03/11 11:09:12;;;;;;;5.93;2.20;;;8.20;99.90;;;;;;5066490;28;20191;-65
2022/03/11 11:11:39;;;;;;;8.67;2.50;;;8.10;99.90;;;;;;5060178;28;20225;-66
2022/03/11 11:14:08;;;;;;;8.50;2.43;;;8.10;99.90;;;;;;5056109;28;20627;-65
2022/03/11 11:16:44;;;;;;;6.63;2.27;;;8.20;99.90;;;;;;5065652;28;20201;-66
2022/03/11 11:19:17;;;;;;;12.73;2.37;;;8.20;99.90;;;;;;5064105;28;20179;-65
2022/03/11 11:21:50;;;;;;;8.90;2.13;;;8.30;99.90;;;;;;5064657;28;20190;-64
2022/03/11 11:24:25;;;;;;;9.10;2.37;;;8.30;99.90;;;;;;5060516;28;20191;-65
2022/03/11 11:26:55;;;;;;;7.47;2.10;;;8.20;99.90;;;;;;5066888;28;20893;-65
2022/03/11 11:29:29;;;;;;;4.70;2.00;;;8.10;99.90;;;;;;5066853;28;20260;-66
2022/03/11 11:31:58;;;;;;;6.03;2.10;;;8.00;99.90;;;;;;5065002;28;20740;-65
2022/03/11 11:34:34;;;;;;;11.87;2.73;;;8.00;99.90;;;;;;5066292;28;20218;-65
2022/03/11 11:37:08;;;;;;;3.60;1.70;;;7.90;99.90;;;;;;5065357;28;20197;-67
2022/03/11 11:39:42;;;;;;;5.00;1.60;;;7.90;99.90;;;;;;5066270;28;20261;-66
2022/03/11 11:42:13;;;;;;;8.67;2.27;;;7.80;99.90;;;;;;5060798;28;20321;-66
2022/03/11 11:44:42;;;;;;;5.60;2.03;;;7.60;99.90;;;;;;5067024;28;20320;-64
2022/03/11 11:47:22;;;;;;;6.47;1.90;;;7.50;99.90;;;;;;5065882;28;20229;-64
2022/03/11 11:49:55;;;;;;;4.77;1.77;;;7.10;99.90;;;;;;5066014;28;20194;-66
2022/03/11 11:52:39;;;;;;;8.90;1.80;;;7.00;99.90;;;;;;5066761;28;20991;-64
2022/03/11 11:55:17;;;;;;;7.20;1.93;;;6.80;99.90;;;;;;5059067;28;20218;-65
2022/03/11 11:57:46;;;;;;;5.20;2.10;;;6.60;99.90;;;;;;5060973;28;20590;-64
2022/03/11 12:00:31;;;;;;;8.30;2.37;;;6.60;99.90;;;;;;5065536;28;20299;-67
2022/03/11 12:02:59;;;;;;;5.97;2.10;;;6.60;99.90;;;;;;5064923;28;20186;-64
2022/03/11 12:05:48;;;;;;;4.33;2.20;;;6.60;99.90;;;;;;5067469;28;20199;-65
2022/03/11 12:08:40;;;;;;;5.97;2.20;;;6.60;99.90;;;;;;5059553;28;20277;-67
2022/03/11 12:11:07;;;;;;;5.93;2.40;;;6.60;99.90;;;;;;5059741;28;20179;-67
2022/03/11 12:13:39;;;;;;;7.10;2.30;;;6.60;99.90;;;;;;5062690;28;20227;-65
2022/03/11 12:16:24;;;;;;;7.47;2.40;;;6.60;99.90;;;;;;5068273;28;20190;-65
2022/03/11 12:18:51;;;;;;;8.27;2.57;;;6.70;99.90;;;;;;5064882;28;20183;-65
2022/03/11 12:21:28;;;;;;;4.70;2.10;;;6.80;99.90;;;;;;5066542;28;20229;-65
2022/03/11 12:24:15;;;;;;;4.20;2.00;;;6.90;99.90;;;;;;5069807;28;20243;-66
2022/03/11 12:26:42;;;;;;;7.20;2.07;;;7.10;99.90;;;;;;5066568;28;20187;-64
2022/03/11 12:29:29;;;;;;;9.23;2.10;;;7.20;99.90;;;;;;5066433;28;20202;-64
2022/03/11 12:38:34;;;;;;;6.13;2.20;;;7.80;99.90;;;;;;3358478;26;20230;-67
2022/03/11 12:41:18;;;;;;;5.27;1.80;;;7.90;99.90;;;;;;5060031;28;20679;-67
2022/03/11 12:43:46;;;;;;;4.20;1.97;;;8.00;99.90;;;;;;5061546;28;20678;-67
2022/03/11 12:46:13;;;;;;;8.57;1.93;;;7.90;99.90;;;;;;5045890;28;20195;-67
2022/03/11 12:48:45;;;;;;;5.20;2.00;;;7.80;99.90;;;;;;5075899;28;20277;-67
2022/03/11 12:51:19;;;;;;;7.43;2.10;;;7.80;99.90;;;;;;5041064;28;20202;-67
2022/03/11 12:53:50;;;;;;;4.73;1.97;;;7.70;99.90;;;;;;5046338;28;20213;-67
2022/03/11 12:56:18;;;;;;;4.40;1.87;;;7.70;99.90;;;;;;5028060;28;20242;-67
2022/03/11 12:58:47;;;;;;;12.50;2.33;;;7.70;99.90;;;;;;5047587;28;20191;-68
2022/03/11 13:01:15;;;;;;;8.53;2.30;;;7.90;99.90;;;;;;5047221;28;20202;-68
2022/03/11 13:03:49;;;;;;;7.00;2.00;;;7.90;99.90;;;;;;5026084;28;20187;-68
2022/03/11 13:06:16;;;;;;;8.77;2.80;;;7.90;99.90;;;;;;5062807;28;20214;-67
2022/03/11 13:08:44;;;;;;;5.07;1.73;;;7.90;99.90;;;;;;5046540;28;20236;-68
2022/03/11 13:11:14;;;;;;;5.83;2.13;;;7.80;99.90;;;;;;5043763;28;20203;-68
2022/03/11 13:13:42;;;;;;;5.57;1.90;;;7.80;99.90;;;;;;5040589;28;20211;-68
2022/03/11 13:16:11;;;;;;;7.73;2.10;;;7.90;99.90;;;;;;5035531;28;20250;-69
2022/03/11 13:18:40;;;;;;;8.57;2.10;;;8.00;99.90;;;;;;5038885;28;20195;-68
2022/03/11 13:21:12;;;;;;;8.50;2.00;;;8.20;99.90;;;;;;5038909;28;20195;-68
2022/03/11 13:23:45;;;;;;;7.90;2.13;;;8.10;99.90;;;;;;5043862;28;20714;-68
2022/03/11 13:26:19;;;;;;;11.53;2.50;;;8.10;99.90;;;;;;5042359;28;20194;-67
2022/03/11 13:28:49;;;;;;;8.13;2.20;;;8.10;99.90;;;;;;5039824;28;20276;-68
2022/03/11 13:31:25;;;;;;;7.17;1.90;;;8.00;99.90;;;;;;5047795;28;20194;-68
2022/03/11 13:33:56;;;;;;;5.40;2.10;;;7.90;99.90;;;;;;5071900;28;20274;-68
2022/03/11 13:36:28;;;;;;;6.00;1.97;;;7.70;99.90;;;;;;5042389;28;20219;-68
2022/03/11 13:39:17;;;;;;;7.57;1.90;;;7.60;99.90;;;;;;5044864;28;20214;-68
2022/03/11 13:41:54;;;;;;;4.30;2.03;;;7.50;99.90;;;;;;5034053;28;20220;-68